English Center, Pennsylvania
Current Conditions -  °F | °C
As of 7:16 PM on Wednesday 26 Nov 2014 (Local Time) from KIPT Reporting Station
Light Snow Light Snow  
Wind Chill: -4°   Ceiling: 2500
Heat Index:   Visibility: 7mi
Dew Point: -1°   Wind: 9mph
Humidity: 89%   Direction: 260°W
Pressure: 29.98"   Gusts: NA
Location:  41.3465°N, 77.3228°W
Report Text: KIPT 270016Z 26008KT 7SM -SN FEW020 BKN025 OVC045 01/M01 A2998 RMK AO2 P0000 T00061011
Loading
Personal Weather Stations






























Interactive Weather Map New forecast layout! Learn more

10-Day Weather Forecast

Advertisements
Track Severe Weather on mobile